Time;durP1;ratioP1;P1;durP2;ratioP2;P2;SDS_P1;SDS_P2;PMS_P1;PMS_P2;Temp;Humidity;BMP_temperature;BMP_pressure;BME280_temperature;BME280_humidity;BME280_pressure;Samples;Min_cycle;Max_cycle;Signal;HPM_P1;HPM_P2
2021/05/08 00:00:25;;;;;;;4.57;3.20;;;5.20;93.90;;;;;;5017276;28;20234;-90
2021/05/08 00:02:51;;;;;;;3.90;3.47;;;5.10;94.40;;;;;;5019057;28;20230;-92
2021/05/08 00:05:17;;;;;;;3.93;3.40;;;5.10;94.50;;;;;;5036022;28;20234;-90
2021/05/08 00:07:48;;;;;;;4.00;3.20;;;5.10;94.40;;;;;;5012131;28;20214;-90
2021/05/08 00:10:20;;;;;;;4.30;3.20;;;5.20;94.20;;;;;;5017996;28;20689;-90
2021/05/08 00:12:53;;;;;;;4.43;3.33;;;5.30;94.00;;;;;;5010113;28;20199;-90
2021/05/08 00:15:27;;;;;;;4.43;3.40;;;5.30;93.80;;;;;;5019354;28;20265;-89
2021/05/08 00:18:00;;;;;;;5.37;3.67;;;5.30;93.90;;;;;;5023201;28;20208;-90
2021/05/08 00:20:28;;;;;;;4.20;3.50;;;5.10;93.90;;;;;;5012049;28;20235;-89
2021/05/08 00:22:56;;;;;;;4.47;3.60;;;4.90;94.30;;;;;;5018337;28;20606;-90
2021/05/08 00:25:22;;;;;;;5.00;3.67;;;4.90;95.10;;;;;;5017862;28;20261;-89
2021/05/08 00:27:49;;;;;;;4.23;3.33;;;4.90;95.00;;;;;;5018259;28;20648;-89
2021/05/08 00:30:17;;;;;;;3.93;3.23;;;5.00;94.70;;;;;;5009433;28;20227;-89
2021/05/08 00:32:44;;;;;;;3.77;3.33;;;5.00;94.30;;;;;;5018075;28;20370;-90
2021/05/08 00:35:10;;;;;;;3.70;3.30;;;4.90;94.20;;;;;;5018006;28;20243;-90
2021/05/08 00:37:37;;;;;;;3.60;3.30;;;4.80;94.30;;;;;;5018253;28;20203;-89
2021/05/08 00:40:05;;;;;;;4.73;3.20;;;4.60;94.90;;;;;;5016787;28;20235;-89
2021/05/08 00:42:32;;;;;;;4.17;3.37;;;4.60;95.00;;;;;;5017657;28;20226;-89
2021/05/08 00:44:58;;;;;;;4.00;3.13;;;4.50;95.00;;;;;;5017658;28;20237;-89
2021/05/08 00:47:25;;;;;;;3.40;3.10;;;4.40;95.00;;;;;;5017551;28;20195;-91
2021/05/08 00:49:55;;;;;;;3.87;3.30;;;4.40;95.00;;;;;;5017360;28;20237;-91
2021/05/08 00:52:24;;;;;;;4.60;3.77;;;4.50;95.00;;;;;;5017479;28;20200;-89
2021/05/08 00:54:50;;;;;;;3.97;3.30;;;4.40;95.00;;;;;;5008859;28;20266;-89
2021/05/08 00:57:17;;;;;;;5.40;3.57;;;4.40;95.00;;;;;;5018045;28;20229;-90
2021/05/08 00:59:44;;;;;;;4.77;3.70;;;4.40;95.00;;;;;;5016549;28;20235;-90
2021/05/08 01:02:14;;;;;;;4.77;3.67;;;4.20;94.90;;;;;;5000114;28;20204;-89
2021/05/08 01:04:41;;;;;;;4.70;3.57;;;4.20;95.60;;;;;;5016382;28;20222;-91
2021/05/08 01:07:09;;;;;;;5.53;3.77;;;4.30;95.40;;;;;;5017494;28;20241;-89
2021/05/08 01:09:40;;;;;;;3.90;3.20;;;4.30;95.00;;;;;;5015844;28;20199;-91
2021/05/08 01:12:07;;;;;;;4.67;3.27;;;4.30;95.30;;;;;;5017317;28;20601;-89
2021/05/08 01:14:44;;;;;;;4.20;3.70;;;4.30;95.40;;;;;;5016518;28;20302;-89
2021/05/08 01:17:11;;;;;;;5.63;3.80;;;4.30;94.90;;;;;;5016202;28;20297;-89
2021/05/08 01:19:37;;;;;;;4.97;3.40;;;4.30;94.90;;;;;;4996693;28;20207;-89
2021/05/08 01:22:04;;;;;;;5.37;3.40;;;4.20;94.90;;;;;;5004451;28;20563;-90
2021/05/08 01:24:31;;;;;;;4.60;3.90;;;4.20;95.40;;;;;;5016054;28;20298;-90
2021/05/08 01:26:57;;;;;;;5.43;3.60;;;4.10;95.30;;;;;;5016848;28;20204;-89
2021/05/08 01:29:24;;;;;;;4.10;3.60;;;4.00;95.20;;;;;;5016340;28;20218;-89
2021/05/08 01:31:50;;;;;;;5.40;3.83;;;3.90;95.80;;;;;;5018422;28;20199;-88
2021/05/08 01:34:17;;;;;;;4.77;3.63;;;4.00;96.30;;;;;;5020556;28;20242;-88
2021/05/08 01:36:43;;;;;;;3.50;3.03;;;4.10;96.40;;;;;;5017052;28;20215;-88
2021/05/08 01:39:10;;;;;;;4.60;3.40;;;4.30;95.90;;;;;;5019798;28;20209;-89
2021/05/08 01:41:37;;;;;;;4.60;3.13;;;4.50;95.10;;;;;;5018831;28;20238;-88
2021/05/08 01:44:04;;;;;;;4.00;3.20;;;4.40;94.90;;;;;;5019655;28;20199;-90
2021/05/08 01:46:31;;;;;;;4.23;3.17;;;4.30;94.90;;;;;;5017840;28;20702;-88
2021/05/08 01:48:57;;;;;;;4.20;3.40;;;4.20;94.90;;;;;;5020668;28;20290;-89
2021/05/08 01:58:08;;;;;;;3.63;3.07;;;4.10;94.90;;;;;;5017529;28;20690;-89
2021/05/08 02:00:36;;;;;;;3.93;3.20;;;3.80;95.30;;;;;;5016107;28;20716;-89
2021/05/08 02:03:04;;;;;;;4.13;3.30;;;3.90;95.90;;;;;;5012784;28;20651;-89
2021/05/08 02:05:32;;;;;;;4.37;3.40;;;3.80;95.70;;;;;;5009007;28;20231;-90
2021/05/08 02:08:02;;;;;;;3.83;3.43;;;3.90;95.90;;;;;;5030818;28;20199;-88
2021/05/08 02:10:29;;;;;;;6.53;3.40;;;3.80;95.80;;;;;;5014314;28;20653;-90
2021/05/08 02:12:55;;;;;;;3.77;3.37;;;3.90;95.70;;;;;;5006321;28;20208;-89
2021/05/08 02:15:23;;;;;;;4.27;3.30;;;3.90;95.40;;;;;;5012232;28;20231;-88
2021/05/08 02:17:50;;;;;;;6.17;3.30;;;3.80;95.70;;;;;;5030030;28;20195;-89
2021/05/08 02:20:21;;;;;;;4.43;3.40;;;3.80;95.80;;;;;;5015467;28;20242;-88
2021/05/08 02:22:48;;;;;;;3.63;3.33;;;3.80;95.80;;;;;;5029349;28;20203;-88
2021/05/08 02:25:15;;;;;;;4.13;3.50;;;3.80;96.10;;;;;;5016394;28;20685;-89
2021/05/08 02:27:41;;;;;;;6.33;3.67;;;3.80;96.10;;;;;;5016025;28;20206;-90
2021/05/08 02:30:10;;;;;;;3.80;3.07;;;3.80;96.20;;;;;;5016253;28;20215;-89
2021/05/08 02:32:40;;;;;;;3.20;2.90;;;3.90;96.10;;;;;;5025348;28;20215;-89
2021/05/08 02:35:09;;;;;;;4.20;2.97;;;3.90;96.20;;;;;;5019849;28;20235;-87
2021/05/08 02:37:36;;;;;;;4.43;3.20;;;3.90;95.60;;;;;;5018227;28;20195;-89
2021/05/08 02:40:05;;;;;;;3.67;3.20;;;3.80;95.60;;;;;;5014963;28;20255;-90
2021/05/08 02:42:31;;;;;;;3.20;2.90;;;3.80;95.80;;;;;;4999810;28;20211;-90
2021/05/08 02:44:59;;;;;;;3.10;2.80;;;3.80;95.90;;;;;;5018070;28;20322;-89
2021/05/08 02:47:26;;;;;;;3.20;2.90;;;3.80;96.00;;;;;;5022321;28;20194;-90
2021/05/08 02:49:54;;;;;;;3.37;3.07;;;3.80;96.10;;;;;;5026702;28;20694;-89
2021/05/08 02:52:21;;;;;;;5.20;2.93;;;3.80;95.30;;;;;;5010131;28;20207;-89
2021/05/08 02:54:47;;;;;;;3.53;3.20;;;3.70;95.20;;;;;;5016457;28;20230;-88
2021/05/08 02:57:14;;;;;;;3.57;3.27;;;3.60;95.80;;;;;;5017298;28;20654;-89
2021/05/08 02:59:40;;;;;;;3.97;3.27;;;3.60;95.90;;;;;;5014793;28;20689;-90
2021/05/08 03:02:07;;;;;;;3.93;2.90;;;3.60;96.20;;;;;;5031051;28;20225;-88
2021/05/08 03:04:34;;;;;;;3.50;3.20;;;3.60;96.20;;;;;;5017617;28;20225;-88
2021/05/08 03:07:02;;;;;;;3.20;2.90;;;3.70;95.80;;;;;;5021742;28;20199;-89
2021/05/08 03:09:28;;;;;;;3.77;3.27;;;3.70;95.50;;;;;;5001955;28;20218;-86
2021/05/08 03:11:55;;;;;;;3.87;3.40;;;3.60;95.70;;;;;;5011611;28;20207;-89
2021/05/08 03:14:21;;;;;;;3.77;3.33;;;3.60;95.80;;;;;;5011700;28;20723;-91
2021/05/08 03:16:47;;;;;;;4.57;3.40;;;3.60;95.90;;;;;;5013955;28;20199;-88
2021/05/08 03:19:14;;;;;;;4.53;3.20;;;3.60;95.90;;;;;;5005395;28;20658;-88
2021/05/08 03:21:40;;;;;;;4.03;3.30;;;3.60;96.00;;;;;;5005740;28;20225;-89
2021/05/08 03:24:09;;;;;;;5.03;3.20;;;3.60;95.70;;;;;;5021997;28;20206;-88
2021/05/08 03:26:36;;;;;;;5.67;3.27;;;3.60;95.40;;;;;;5014226;28;20237;-88
2021/05/08 03:29:03;;;;;;;4.80;3.23;;;3.60;95.40;;;;;;5012014;28;20714;-89
2021/05/08 03:31:30;;;;;;;3.63;3.27;;;3.40;95.50;;;;;;5000482;28;20223;-89
2021/05/08 03:33:56;;;;;;;4.67;3.00;;;3.30;95.70;;;;;;5014160;28;20237;-89
2021/05/08 03:36:23;;;;;;;3.83;3.43;;;3.20;95.90;;;;;;5006086;28;20233;-90
2021/05/08 03:38:49;;;;;;;3.73;3.10;;;3.20;96.10;;;;;;5018012;28;20208;-90
2021/05/08 03:41:17;;;;;;;3.93;3.30;;;3.10;96.10;;;;;;5014719;28;20275;-89
2021/05/08 03:43:43;;;;;;;3.53;3.13;;;3.10;96.50;;;;;;5010607;28;20208;-90
2021/05/08 03:46:09;;;;;;;4.13;3.13;;;3.00;96.60;;;;;;5011712;28;20582;-89
2021/05/08 03:48:36;;;;;;;3.50;2.93;;;3.10;96.80;;;;;;5013772;28;20199;-90
2021/05/08 03:51:02;;;;;;;3.23;2.93;;;3.20;96.70;;;;;;5012822;28;20223;-88
2021/05/08 03:53:28;;;;;;;4.57;3.20;;;3.20;96.80;;;;;;5021077;28;20198;-90
2021/05/08 03:55:55;;;;;;;4.47;2.90;;;3.40;96.40;;;;;;5006061;28;20234;-89
2021/05/08 03:58:25;;;;;;;4.00;3.20;;;3.30;95.80;;;;;;5015471;28;20226;-90
2021/05/08 04:00:51;;;;;;;3.30;3.00;;;3.30;96.10;;;;;;5007936;28;20836;-90
2021/05/08 04:03:18;;;;;;;4.47;2.87;;;3.30;96.00;;;;;;5018970;28;20202;-89
2021/05/08 04:05:44;;;;;;;4.00;3.10;;;3.30;96.10;;;;;;5014233;28;20243;-90
2021/05/08 04:08:11;;;;;;;4.67;3.17;;;3.30;96.30;;;;;;5017600;28;20209;-89
2021/05/08 04:10:38;;;;;;;3.83;2.90;;;3.30;96.30;;;;;;5010515;28;20706;-89
2021/05/08 04:13:04;;;;;;;3.13;2.83;;;3.30;96.20;;;;;;5019790;28;20246;-91
2021/05/08 04:15:32;;;;;;;3.47;3.00;;;3.40;96.40;;;;;;5014375;28;20235;-90
2021/05/08 04:17:58;;;;;;;4.83;3.10;;;3.50;95.90;;;;;;5011400;28;20212;-90
2021/05/08 04:20:25;;;;;;;4.53;2.90;;;3.40;95.90;;;;;;5012811;28;20254;-90
2021/05/08 04:22:52;;;;;;;3.03;2.73;;;3.40;96.10;;;;;;5014059;28;20205;-94
2021/05/08 04:25:18;;;;;;;3.17;2.87;;;3.40;96.20;;;;;;5019446;28;20229;-88
2021/05/08 04:27:44;;;;;;;3.27;2.87;;;3.50;95.90;;;;;;5023588;28;20374;-88
2021/05/08 04:30:12;;;;;;;3.37;2.90;;;3.70;95.40;;;;;;5001807;28;20228;-89
2021/05/08 04:32:45;;;;;;;4.73;3.10;;;3.60;95.10;;;;;;5013068;28;20563;-89
2021/05/08 04:35:11;;;;;;;4.60;2.80;;;3.60;95.70;;;;;;5022505;28;20227;-90
2021/05/08 04:37:38;;;;;;;4.00;2.73;;;3.70;95.50;;;;;;5023032;28;20213;-89
2021/05/08 04:40:06;;;;;;;5.73;2.67;;;3.80;95.40;;;;;;5017835;28;20222;-89
2021/05/08 04:42:32;;;;;;;4.40;2.80;;;3.90;95.20;;;;;;5013446;28;20241;-89
2021/05/08 04:44:58;;;;;;;3.43;2.50;;;4.00;95.10;;;;;;5023955;28;20227;-90
2021/05/08 04:47:25;;;;;;;3.33;2.90;;;4.10;94.90;;;;;;5012281;28;20560;-90
2021/05/08 04:49:57;;;;;;;3.17;2.87;;;4.30;94.90;;;;;;5016763;28;20234;-92
2021/05/08 04:52:24;;;;;;;3.03;2.73;;;4.40;94.40;;;;;;5022562;28;20207;-90
2021/05/08 04:54:50;;;;;;;2.90;2.60;;;4.50;94.00;;;;;;5027759;28;20227;-89
2021/05/08 04:57:16;;;;;;;3.23;2.90;;;4.50;94.10;;;;;;5018659;28;20199;-89
2021/05/08 04:59:43;;;;;;;3.97;2.90;;;4.60;94.00;;;;;;5015017;28;20232;-89
2021/05/08 05:02:09;;;;;;;2.60;2.40;;;4.60;93.60;;;;;;5016110;28;20976;-89
2021/05/08 05:04:36;;;;;;;3.77;2.60;;;4.70;93.50;;;;;;5015281;28;20195;-88
2021/05/08 05:07:03;;;;;;;3.87;2.60;;;4.80;93.30;;;;;;5016493;28;20202;-88
2021/05/08 05:09:32;;;;;;;4.03;2.90;;;5.00;93.00;;;;;;5016563;28;20627;-89
2021/05/08 05:12:07;;;;;;;2.87;2.30;;;5.00;92.60;;;;;;5017798;28;20207;-88
2021/05/08 05:14:33;;;;;;;3.70;2.70;;;5.10;92.60;;;;;;5016360;28;20222;-89
2021/05/08 05:17:00;;;;;;;4.00;3.10;;;5.10;92.50;;;;;;5016808;28;20192;-90
2021/05/08 05:19:26;;;;;;;2.60;2.40;;;5.20;92.40;;;;;;5027702;28;20232;-88
2021/05/08 05:21:53;;;;;;;3.37;2.40;;;5.40;92.00;;;;;;5002269;28;20608;-88
2021/05/08 05:24:20;;;;;;;3.70;2.70;;;5.60;90.90;;;;;;5016491;28;20195;-88
2021/05/08 05:26:47;;;;;;;2.70;2.37;;;5.80;90.60;;;;;;5016090;28;20230;-90
2021/05/08 08:33:03;;;;;;;2.42;1.88;;;13.80;35.20;;;;;;5014422;28;20216;-89
2021/05/08 08:35:29;;;;;;;4.43;2.17;;;14.30;35.40;;;;;;5022796;28;20734;-88
2021/05/08 08:37:56;;;;;;;4.35;1.95;;;14.70;31.90;;;;;;5016293;28;20233;-86
2021/05/08 08:40:26;;;;;;;2.63;2.10;;;16.00;28.70;;;;;;5005285;28;20232;-88
2021/05/08 08:42:53;;;;;;;2.80;1.90;;;17.30;26.50;;;;;;5025212;28;20214;-85
2021/05/08 08:45:19;;;;;;;2.25;1.92;;;17.70;24.40;;;;;;5020239;28;20232;-86
2021/05/08 08:47:46;;;;;;;3.45;1.80;;;18.70;22.90;;;;;;5025146;28;20210;-86
2021/05/08 08:50:15;;;;;;;2.38;2.17;;;19.70;22.50;;;;;;5017135;28;20219;-83
2021/05/08 08:52:41;;;;;;;2.25;2.05;;;20.40;20.40;;;;;;5008474;28;20685;-84
2021/05/08 08:55:10;;;;;;;2.88;1.90;;;21.70;19.40;;;;;;5003032;28;20235;-83
2021/05/08 08:57:40;;;;;;;4.90;2.30;;;22.80;17.40;;;;;;5003344;28;20720;-88
2021/05/08 09:00:10;;;;;;;2.38;2.17;;;23.10;16.80;;;;;;5003210;28;20241;-89
2021/05/08 09:02:37;;;;;;;2.40;2.20;;;24.00;16.20;;;;;;5001540;28;20345;-87
2021/05/08 09:05:07;;;;;;;2.38;2.20;;;25.60;15.50;;;;;;5000390;28;20314;-87
2021/05/08 09:07:36;;;;;;;4.65;2.20;;;26.10;14.70;;;;;;5000432;28;20203;-88
2021/05/08 09:10:05;;;;;;;3.13;2.28;;;26.00;14.70;;;;;;5011004;28;20280;-87
2021/05/08 09:12:31;;;;;;;2.50;2.30;;;25.30;14.30;;;;;;5017044;28;20199;-89
2021/05/08 09:14:58;;;;;;;4.35;2.63;;;26.00;14.60;;;;;;5004364;28;20281;-90
2021/05/08 09:17:26;;;;;;;3.33;2.00;;;26.10;14.70;;;;;;5014742;28;20643;-88
2021/05/08 09:19:57;;;;;;;2.47;2.20;;;25.60;14.40;;;;;;5023885;28;20223;-88
2021/05/08 09:25:56;;;;;;;3.80;2.15;;;26.70;15.00;;;;;;4935701;28;20228;-88
2021/05/08 09:28:23;;;;;;;2.20;2.08;;;27.60;13.30;;;;;;4938034;29;20756;-87
2021/05/08 09:30:50;;;;;;;3.05;2.35;;;28.30;12.00;;;;;;5003732;28;20211;-85
2021/05/08 09:33:20;;;;;;;2.88;2.25;;;27.20;12.30;;;;;;5017009;28;20195;-86
2021/05/08 09:35:58;;;;;;;2.30;2.00;;;26.90;13.60;;;;;;5020852;28;20246;-87
2021/05/08 09:38:30;;;;;;;3.05;2.33;;;26.40;13.70;;;;;;5009917;28;20196;-87
2021/05/08 09:40:59;;;;;;;3.95;2.22;;;25.90;14.60;;;;;;5008381;28;20235;-87
2021/05/08 09:43:26;;;;;;;2.50;2.30;;;27.00;15.10;;;;;;5003694;28;20854;-86
2021/05/08 09:45:53;;;;;;;3.03;2.33;;;26.00;14.20;;;;;;5018962;28;20236;-87
2021/05/08 09:48:39;;;;;;;1.98;1.85;;;25.90;14.60;;;;;;5016787;28;20630;-87
2021/05/08 09:51:17;;;;;;;2.00;1.90;;;25.30;15.20;;;;;;5016697;28;20240;-87
2021/05/08 09:53:44;;;;;;;3.58;1.90;;;26.30;14.20;;;;;;5017917;28;20210;-86
2021/05/08 09:56:34;;;;;;;2.42;1.80;;;27.60;14.80;;;;;;5017150;28;20255;-87
2021/05/08 09:59:27;;;;;;;2.22;2.05;;;27.60;13.90;;;;;;5017477;28;20264;-89
2021/05/08 10:02:17;;;;;;;3.25;2.30;;;28.80;11.90;;;;;;5028724;28;20222;-89
2021/05/08 10:04:45;;;;;;;2.47;2.20;;;27.90;12.30;;;;;;5016508;28;20234;-89
2021/05/08 10:07:13;;;;;;;2.72;2.28;;;25.50;14.40;;;;;;5003547;28;20229;-89
2021/05/08 10:09:41;;;;;;;2.30;2.10;;;24.60;14.00;;;;;;5004728;28;20195;-89
2021/05/08 10:12:10;;;;;;;1.90;1.80;;;24.90;16.30;;;;;;5009400;28;20677;-90
2021/05/08 10:14:38;;;;;;;2.30;2.13;;;24.70;16.50;;;;;;5004792;28;20227;-89
2021/05/08 10:17:04;;;;;;;2.25;1.80;;;25.30;14.30;;;;;;5007771;28;20187;-89
2021/05/08 10:19:37;;;;;;;2.13;1.92;;;26.20;15.60;;;;;;5007721;28;20209;-90
2021/05/08 10:22:10;;;;;;;3.97;1.85;;;26.70;15.60;;;;;;5001019;28;20214;-90
2021/05/08 10:24:41;;;;;;;2.53;1.98;;;25.90;14.60;;;;;;5000711;28;20250;-87
2021/05/08 10:27:11;;;;;;;2.42;1.88;;;24.10;16.10;;;;;;5005672;28;20203;-86
2021/05/08 10:29:39;;;;;;;3.28;1.80;;;24.40;16.00;;;;;;5013236;28;20269;-86
2021/05/08 10:32:09;;;;;;;1.70;1.60;;;23.70;17.60;;;;;;5017344;28;20215;-88
2021/05/08 10:34:37;;;;;;;2.20;2.00;;;24.70;16.00;;;;;;5007355;28;20672;-89
2021/05/08 10:37:21;;;;;;;2.30;1.70;;;23.80;15.50;;;;;;5003085;28;20200;-88
2021/05/08 10:39:54;;;;;;;1.75;1.65;;;21.90;17.40;;;;;;5012601;28;20230;-89
2021/05/08 10:42:41;;;;;;;1.80;1.58;;;22.10;17.50;;;;;;5020725;28;20286;-88
2021/05/08 10:45:31;;;;;;;46.90;42.25;;;22.80;17.20;;;;;;5015598;28;20222;-88
2021/05/08 10:48:07;;;;;;;3.67;1.80;;;24.00;18.80;;;;;;5013783;28;20208;-88
2021/05/08 10:50:42;;;;;;;2.67;1.70;;;21.70;17.00;;;;;;5010504;28;20237;-86
2021/05/08 10:53:10;;;;;;;4.78;4.32;;;22.00;18.00;;;;;;5014714;28;20191;-87
2021/05/08 10:59:07;;;;;;;2.60;1.50;;;21.20;20.00;;;;;;5014036;28;20242;-84
2021/05/08 11:05:19;;;;;;;1.60;1.50;;;22.90;19.60;;;;;;4965117;28;20259;-85
2021/05/08 11:11:48;;;;;;;1.80;1.70;;;20.60;19.80;;;;;;5007430;28;20324;-87
2021/05/08 11:18:03;;;;;;;1.63;1.13;;;20.60;20.70;;;;;;5022805;28;20199;-90
2021/05/08 11:20:32;;;;;;;1.52;1.35;;;20.50;20.30;;;;;;4997783;28;20200;-88
2021/05/08 11:26:50;;;;;;;2.55;1.33;;;19.70;21.00;;;;;;5016143;28;20598;-85
2021/05/08 11:34:24;;;;;;;1.33;1.20;;;19.60;22.50;;;;;;5062391;28;20263;-90
2021/05/08 11:36:53;;;;;;;1.40;1.30;;;19.60;20.00;;;;;;5071702;28;20201;-87
2021/05/08 11:39:22;;;;;;;2.78;1.60;;;19.20;19.80;;;;;;5073880;28;20235;-88
2021/05/08 11:41:51;;;;;;;4.15;1.33;;;19.50;20.90;;;;;;5079457;28;20225;-86
2021/05/08 11:44:28;;;;;;;1.63;1.42;;;19.60;20.80;;;;;;5070375;28;20221;-87
2021/05/08 11:46:57;;;;;;;1.30;1.20;;;19.60;23.40;;;;;;5077295;28;20225;-89
2021/05/08 11:49:32;;;;;;;2.17;1.20;;;19.50;20.00;;;;;;5064814;28;20213;-84
2021/05/08 11:52:09;;;;;;;1.38;1.25;;;19.10;19.80;;;;;;5074057;28;20287;-87
2021/05/08 11:54:40;;;;;;;2.33;1.48;;;19.10;24.90;;;;;;5077494;28;20228;-86
2021/05/08 11:57:19;;;;;;;2.05;1.20;;;18.60;25.10;;;;;;5076115;28;20661;-87
2021/05/08 11:59:45;;;;;;;2.13;1.40;;;18.60;22.90;;;;;;5075956;28;20713;-87
2021/05/08 12:02:16;;;;;;;1.92;1.20;;;18.30;21.40;;;;;;5086632;28;20201;-86
2021/05/08 12:05:06;;;;;;;1.90;1.20;;;18.50;22.40;;;;;;5078822;28;20196;-86
2021/05/08 12:07:38;;;;;;;1.67;1.10;;;18.80;23.20;;;;;;5073420;28;20259;-86
2021/05/08 12:10:16;;;;;;;1.92;1.73;;;18.70;21.70;;;;;;5081548;28;20234;-90
2021/05/08 12:13:16;;;;;;;4.57;3.15;;;18.10;21.90;;;;;;5080345;28;20217;-92
2021/05/08 12:15:45;;;;;;;10.05;8.55;;;17.80;22.30;;;;;;5076699;28;20276;-92
2021/05/08 12:18:46;;;;;;;1.52;1.13;;;18.30;23.20;;;;;;5076336;28;20203;-92
2021/05/08 12:21:14;;;;;;;2.30;2.10;;;18.50;21.90;;;;;;5072226;28;20321;-93
2021/05/08 12:23:41;;;;;;;1.38;1.27;;;18.80;21.90;;;;;;5082383;28;20270;-91
2021/05/08 12:30:26;;;;;;;1.23;1.13;;;18.80;23.70;;;;;;5079918;28;20212;-91
2021/05/08 12:32:53;;;;;;;2.80;1.23;;;18.90;21.50;;;;;;5082710;28;20207;-91
2021/05/08 12:35:20;;;;;;;1.30;1.20;;;19.00;22.40;;;;;;5082944;28;20217;-91
2021/05/08 12:37:57;;;;;;;2.83;1.77;;;18.80;23.10;;;;;;5071739;28;20221;-90
2021/05/08 12:40:30;;;;;;;1.77;1.50;;;18.60;21.80;;;;;;5075186;28;20271;-92
2021/05/08 12:42:56;;;;;;;1.10;1.00;;;18.60;24.90;;;;;;5075236;28;20605;-92
2021/05/08 12:45:23;;;;;;;1.70;1.30;;;19.00;21.20;;;;;;5076576;28;20222;-91
2021/05/08 12:47:49;;;;;;;3.50;2.85;;;19.00;22.90;;;;;;5082966;28;20208;-90
2021/05/08 12:50:23;;;;;;;6.20;5.07;;;19.10;22.50;;;;;;5073067;28;20237;-90
2021/05/08 12:52:59;;;;;;;3.38;1.42;;;19.30;22.90;;;;;;5075243;28;20266;-90
2021/05/08 12:55:26;;;;;;;4.60;3.35;;;19.10;20.80;;;;;;5077377;28;20350;-90
2021/05/08 12:57:53;;;;;;;2.17;1.20;;;18.60;21.90;;;;;;5074301;28;20193;-91
2021/05/08 13:00:21;;;;;;;4.18;3.42;;;18.50;21.30;;;;;;5077532;28;20251;-90
2021/05/08 13:02:48;;;;;;;2.65;1.38;;;18.40;20.90;;;;;;5073147;28;20201;-90
2021/05/08 13:05:16;;;;;;;1.27;1.20;;;18.50;24.00;;;;;;5075823;28;20217;-89
2021/05/08 13:08:02;;;;;;;2.83;1.15;;;18.50;21.20;;;;;;5075060;28;20193;-89
2021/05/08 13:10:32;;;;;;;1.25;1.15;;;18.30;24.10;;;;;;5075660;28;20223;-92
2021/05/08 13:13:00;;;;;;;2.72;2.20;;;18.50;22.80;;;;;;5077865;28;20205;-89
2021/05/08 13:15:34;;;;;;;1.42;1.30;;;18.70;22.00;;;;;;5067151;28;20225;-89
2021/05/08 13:18:00;;;;;;;1.27;1.17;;;18.90;20.50;;;;;;5075651;28;20225;-89
2021/05/08 13:20:30;;;;;;;2.45;0.98;;;19.20;22.10;;;;;;5094177;28;20273;-89
2021/05/08 13:22:58;;;;;;;0.90;0.90;;;19.20;20.20;;;;;;5086976;28;20204;-91
2021/05/08 13:25:24;;;;;;;1.98;1.80;;;19.10;21.20;;;;;;5077390;28;20228;-88
2021/05/08 15:19:11;;;;;;;1.27;0.88;;;19.90;18.70;;;;;;5306308;22;20283;-91
2021/05/08 15:21:38;;;;;;;0.90;0.85;;;20.10;19.20;;;;;;5077664;28;20247;-91
2021/05/08 15:24:06;;;;;;;1.23;1.13;;;20.10;18.40;;;;;;5079859;28;20237;-89
2021/05/08 15:26:44;;;;;;;0.95;0.70;;;19.90;18.70;;;;;;5078361;28;20233;-90
2021/05/08 15:31:46;;;;;;;1.73;0.80;;;19.90;19.60;;;;;;5206960;22;20221;-91
2021/05/08 15:34:26;;;;;;;1.05;0.82;;;20.00;18.30;;;;;;5063751;28;20683;-90
2021/05/08 15:36:53;;;;;;;2.47;1.10;;;20.00;19.40;;;;;;5055796;28;20271;-91
2021/05/08 15:39:19;;;;;;;1.00;1.00;;;20.00;19.60;;;;;;5054015;28;20197;-89
2021/05/08 15:41:46;;;;;;;1.17;1.08;;;20.00;18.90;;;;;;5048036;28;20309;-90
2021/05/08 15:44:12;;;;;;;1.00;1.00;;;19.90;19.30;;;;;;5047881;28;20226;-90
2021/05/08 15:46:39;;;;;;;0.90;0.90;;;20.00;19.20;;;;;;5052632;28;20245;-90
2021/05/08 15:49:06;;;;;;;0.70;0.70;;;19.90;18.90;;;;;;5064770;28;20206;-88
2021/05/08 15:51:34;;;;;;;0.88;0.88;;;19.60;18.70;;;;;;5067759;28;20218;-89
2021/05/08 15:54:01;;;;;;;1.83;1.40;;;19.50;18.60;;;;;;5053770;28;20197;-90
2021/05/08 15:56:27;;;;;;;1.48;1.38;;;19.60;19.30;;;;;;5065027;28;20229;-89
2021/05/08 15:58:54;;;;;;;1.10;1.10;;;19.50;18.40;;;;;;5060466;28;20212;-91
2021/05/08 16:01:34;;;;;;;2.85;0.95;;;19.40;18.90;;;;;;5057320;28;20257;-92
2021/05/08 16:04:00;;;;;;;2.08;1.30;;;19.30;19.10;;;;;;5052920;28;20209;-90
2021/05/08 16:06:27;;;;;;;1.00;1.00;;;19.10;19.50;;;;;;5061307;28;20218;-92
2021/05/08 16:08:54;;;;;;;1.35;0.93;;;19.20;20.00;;;;;;5061259;28;20232;-91
2021/05/08 16:11:20;;;;;;;0.95;0.85;;;19.10;19.40;;;;;;5063560;28;20692;-89
2021/05/08 16:13:47;;;;;;;1.20;1.10;;;19.10;18.10;;;;;;5059740;28;20201;-90
2021/05/08 16:16:14;;;;;;;1.40;0.80;;;18.90;18.60;;;;;;5057819;28;20645;-91
2021/05/08 16:19:13;;;;;;;1.13;0.77;;;19.00;19.70;;;;;;5066269;28;20206;-90
2021/05/08 16:25:12;;;;;;;4.35;1.17;;;18.80;23.80;;;;;;5061297;28;20225;-91
2021/05/08 16:30:11;;;;;;;3.28;1.90;;;18.40;27.60;;;;;;5094765;22;20249;-91
2021/05/08 16:32:38;;;;;;;2.17;1.50;;;18.40;27.80;;;;;;5055512;28;20226;-91
2021/05/08 16:35:05;;;;;;;2.05;1.52;;;18.20;28.70;;;;;;5059375;28;20230;-91
2021/05/08 16:37:31;;;;;;;1.63;1.50;;;18.10;28.10;;;;;;5060149;28;20216;-91
2021/05/08 16:40:09;;;;;;;1.88;1.33;;;18.10;28.00;;;;;;5054182;28;20229;-91
2021/05/08 16:43:18;;;;;;;1.50;1.40;;;18.10;27.90;;;;;;5048209;28;20294;-91
2021/05/08 16:45:46;;;;;;;5.43;3.17;;;18.10;28.80;;;;;;5038055;28;20656;-93
2021/05/08 16:48:12;;;;;;;3.20;1.80;;;17.80;30.30;;;;;;5040019;28;20199;-91
2021/05/08 16:50:38;;;;;;;2.38;1.67;;;17.80;28.70;;;;;;5026173;28;20226;-91
2021/05/08 16:53:05;;;;;;;1.70;1.60;;;17.80;28.30;;;;;;5039529;28;20625;-90
2021/05/08 16:55:31;;;;;;;1.95;1.50;;;17.80;28.00;;;;;;5041435;28;20683;-90
2021/05/08 16:57:58;;;;;;;2.83;1.63;;;17.80;29.10;;;;;;5064403;28;20261;-86
2021/05/08 17:00:26;;;;;;;2.15;1.30;;;17.70;30.10;;;;;;5063185;28;20226;-87
2021/05/08 17:02:53;;;;;;;3.10;1.40;;;17.70;30.10;;;;;;5048941;28;20635;-89
2021/05/08 17:05:20;;;;;;;2.08;1.65;;;17.60;30.00;;;;;;5043674;28;20218;-88
2021/05/08 17:07:46;;;;;;;1.63;1.30;;;17.50;30.00;;;;;;5041017;28;20245;-88
2021/05/08 17:10:14;;;;;;;1.50;1.40;;;17.30;29.80;;;;;;5038845;28;20232;-88
2021/05/08 17:12:40;;;;;;;3.83;1.65;;;17.20;31.10;;;;;;5031760;28;20203;-89
2021/05/08 17:15:08;;;;;;;1.90;1.67;;;17.10;31.60;;;;;;5031431;28;20277;-90
2021/05/08 17:17:36;;;;;;;1.65;1.40;;;16.90;32.30;;;;;;5049135;28;20603;-90
2021/05/08 17:20:04;;;;;;;2.28;1.58;;;16.80;32.90;;;;;;5038425;28;20226;-88
2021/05/08 17:22:31;;;;;;;1.75;1.65;;;16.80;33.40;;;;;;5044197;28;20201;-90
2021/05/08 17:24:57;;;;;;;1.73;1.55;;;16.60;34.00;;;;;;5034797;28;20714;-93
2021/05/08 17:27:24;;;;;;;1.83;1.42;;;16.60;34.50;;;;;;5025181;28;20195;-88
2021/05/08 17:29:50;;;;;;;1.85;1.60;;;16.60;34.50;;;;;;5049034;28;20947;-90
2021/05/08 17:32:16;;;;;;;1.42;1.33;;;16.50;34.80;;;;;;5059948;28;20204;-88
2021/05/08 17:34:44;;;;;;;2.92;1.75;;;16.60;34.60;;;;;;5052533;28;20577;-89
2021/05/08 17:37:12;;;;;;;4.72;1.70;;;16.50;35.10;;;;;;5060789;28;20221;-89
2021/05/08 17:39:38;;;;;;;2.05;1.85;;;16.50;34.50;;;;;;5050076;28;20302;-90
2021/05/08 17:42:06;;;;;;;3.28;1.83;;;16.50;34.60;;;;;;5052527;28;20558;-91
2021/05/08 17:44:32;;;;;;;2.42;2.00;;;16.50;34.60;;;;;;5057611;28;20300;-92
2021/05/08 17:47:02;;;;;;;1.60;1.50;;;16.40;34.80;;;;;;5049153;28;20252;-89
2021/05/08 17:49:29;;;;;;;1.73;1.63;;;16.30;34.80;;;;;;5055102;28;20232;-88
2021/05/08 17:51:56;;;;;;;1.85;1.65;;;16.30;35.40;;;;;;5063982;28;20190;-88
2021/05/08 17:54:25;;;;;;;3.75;2.10;;;16.20;36.00;;;;;;5064866;28;20256;-88
2021/05/08 17:56:53;;;;;;;3.13;2.25;;;16.10;36.80;;;;;;5058419;28;20681;-87
2021/05/08 17:59:23;;;;;;;3.00;2.35;;;16.00;37.30;;;;;;5062019;28;20590;-92
2021/05/08 18:01:50;;;;;;;3.33;2.53;;;16.00;37.40;;;;;;5055052;28;20229;-88
2021/05/08 18:04:17;;;;;;;2.97;2.00;;;15.90;37.90;;;;;;5061115;28;20197;-86
2021/05/08 18:06:44;;;;;;;5.22;2.20;;;15.80;38.20;;;;;;5061784;28;20286;-87
2021/05/08 18:09:11;;;;;;;2.53;1.90;;;15.70;38.50;;;;;;5067681;28;20197;-85
2021/05/08 18:11:40;;;;;;;3.35;2.20;;;15.70;38.70;;;;;;5071842;28;20218;-94
2021/05/08 18:14:07;;;;;;;5.60;3.00;;;15.70;38.90;;;;;;5054561;28;20657;-90
2021/05/08 18:16:33;;;;;;;4.95;3.70;;;15.70;39.00;;;;;;5055081;28;20231;-86
2021/05/08 18:19:04;;;;;;;3.63;3.22;;;15.70;39.50;;;;;;5054397;28;20285;-87
2021/05/08 18:21:35;;;;;;;4.28;2.88;;;15.60;39.90;;;;;;5048059;28;20580;-85
2021/05/08 18:24:01;;;;;;;4.20;2.70;;;15.50;40.10;;;;;;5056348;28;20198;-85
2021/05/08 18:26:28;;;;;;;2.70;2.20;;;15.50;40.10;;;;;;5053347;28;20225;-91
2021/05/08 18:28:55;;;;;;;3.30;2.65;;;15.50;40.80;;;;;;5058246;28;20219;-85
2021/05/08 18:31:23;;;;;;;3.53;2.40;;;15.40;40.60;;;;;;5047319;28;20222;-85
2021/05/08 18:33:49;;;;;;;3.22;2.80;;;15.30;41.40;;;;;;5038818;28;20195;-85
2021/05/08 18:36:15;;;;;;;3.30;2.50;;;15.20;41.50;;;;;;5035195;28;20230;-86
2021/05/08 18:39:25;;;;;;;5.07;2.67;;;15.00;41.50;;;;;;5034304;28;20210;-85
2021/05/08 18:41:52;;;;;;;3.58;2.78;;;15.00;41.90;;;;;;5039550;28;20233;-86